sensor_id;sensor_type;location;lat;lon;timestamp;pressure;altitude;pressure_sealevel;temperature;humidity
61573;BME280;47465;43.094;12.434;2023-03-13T00:00:31;98921.41;;;7.89;99.27
61573;BME280;47465;43.094;12.434;2023-03-13T00:02:57;98925.06;;;7.82;100.00
61573;BME280;47465;43.094;12.434;2023-03-13T00:05:24;98916.44;;;7.68;100.00
61573;BME280;47465;43.094;12.434;2023-03-13T00:07:50;98888.53;;;7.42;100.00
61573;BME280;47465;43.094;12.434;2023-03-13T00:10:16;98909.72;;;7.42;100.00
61573;BME280;47465;43.094;12.434;2023-03-13T00:12:42;98910.63;;;7.39;100.00
61573;BME280;47465;43.094;12.434;2023-03-13T00:15:08;98909.88;;;7.27;100.00
61573;BME280;47465;43.094;12.434;2023-03-13T00:17:34;98914.34;;;7.22;100.00
61573;BME280;47465;43.094;12.434;2023-03-13T00:20:00;98905.59;;;7.16;100.00
61573;BME280;47465;43.094;12.434;2023-03-13T00:22:28;98922.22;;;7.26;100.00
61573;BME280;47465;43.094;12.434;2023-03-13T00:24:53;98921.41;;;7.19;100.00
61573;BME280;47465;43.094;12.434;2023-03-13T00:27:19;98920.66;;;7.07;100.00
61573;BME280;47465;43.094;12.434;2023-03-13T00:29:45;98924.25;;;7.03;100.00
61573;BME280;47465;43.094;12.434;2023-03-13T00:32:11;98918.13;;;6.96;100.00
61573;BME280;47465;43.094;12.434;2023-03-13T00:34:37;98928.75;;;6.93;100.00
61573;BME280;47465;43.094;12.434;2023-03-13T00:37:03;98934.03;;;6.94;100.00
61573;BME280;47465;43.094;12.434;2023-03-13T00:39:30;98927.88;;;6.92;100.00
61573;BME280;47465;43.094;12.434;2023-03-13T00:41:56;98939.31;;;6.91;100.00
61573;BME280;47465;43.094;12.434;2023-03-13T00:44:22;98952.59;;;6.85;100.00
61573;BME280;47465;43.094;12.434;2023-03-13T00:46:48;98939.50;;;6.74;100.00
61573;BME280;47465;43.094;12.434;2023-03-13T00:49:14;98929.91;;;6.64;100.00
61573;BME280;47465;43.094;12.434;2023-03-13T00:51:39;98950.09;;;6.73;100.00
61573;BME280;47465;43.094;12.434;2023-03-13T00:54:05;98920.38;;;6.45;100.00
61573;BME280;47465;43.094;12.434;2023-03-13T00:56:33;98932.63;;;6.52;100.00
61573;BME280;47465;43.094;12.434;2023-03-13T00:58:59;98962.53;;;6.60;100.00
61573;BME280;47465;43.094;12.434;2023-03-13T01:01:27;98934.44;;;6.45;100.00
61573;BME280;47465;43.094;12.434;2023-03-13T01:03:55;98959.00;;;6.56;100.00
61573;BME280;47465;43.094;12.434;2023-03-13T01:06:23;98943.31;;;6.36;100.00
61573;BME280;47465;43.094;12.434;2023-03-13T01:08:50;98950.41;;;6.28;100.00
61573;BME280;47465;43.094;12.434;2023-03-13T01:11:18;98939.03;;;6.20;100.00
61573;BME280;47465;43.094;12.434;2023-03-13T01:13:47;98939.03;;;6.25;100.00
61573;BME280;47465;43.094;12.434;2023-03-13T01:16:16;98966.25;;;6.31;100.00
61573;BME280;47465;43.094;12.434;2023-03-13T01:18:44;98946.97;;;6.17;100.00
61573;BME280;47465;43.094;12.434;2023-03-13T01:21:10;98965.44;;;6.23;100.00
61573;BME280;47465;43.094;12.434;2023-03-13T01:23:36;98956.69;;;6.10;100.00
61573;BME280;47465;43.094;12.434;2023-03-13T01:26:03;98954.97;;;6.08;100.00
61573;BME280;47465;43.094;12.434;2023-03-13T01:28:30;98978.69;;;6.14;100.00
61573;BME280;47465;43.094;12.434;2023-03-13T01:30:57;98977.81;;;6.09;100.00
61573;BME280;47465;43.094;12.434;2023-03-13T01:33:23;98960.28;;;5.91;100.00
61573;BME280;47465;43.094;12.434;2023-03-13T01:35:49;98961.19;;;5.90;100.00
61573;BME280;47465;43.094;12.434;2023-03-13T01:38:15;98975.25;;;5.98;100.00
61573;BME280;47465;43.094;12.434;2023-03-13T01:40:42;98966.44;;;5.93;100.00
61573;BME280;47465;43.094;12.434;2023-03-13T01:43:16;98953.34;;;5.78;100.00
61573;BME280;47465;43.094;12.434;2023-03-13T01:46:08;98976.16;;;5.86;100.00
61573;BME280;47465;43.094;12.434;2023-03-13T01:48:42;98956.00;;;5.73;100.00
61573;BME280;47465;43.094;12.434;2023-03-13T01:51:13;98973.56;;;5.77;100.00
61573;BME280;47465;43.094;12.434;2023-03-13T01:53:43;98956.91;;;5.70;100.00
61573;BME280;47465;43.094;12.434;2023-03-13T01:56:12;98977.94;;;5.76;100.00
61573;BME280;47465;43.094;12.434;2023-03-13T01:58:39;98957.78;;;5.63;100.00
61573;BME280;47465;43.094;12.434;2023-03-13T02:01:07;98963.94;;;5.67;100.00
61573;BME280;47465;43.094;12.434;2023-03-13T02:03:34;98951.63;;;5.61;100.00
61573;BME280;47465;43.094;12.434;2023-03-13T02:06:01;98968.31;;;5.71;100.00
61573;BME280;47465;43.094;12.434;2023-03-13T02:08:32;98958.66;;;5.64;100.00
61573;BME280;47465;43.094;12.434;2023-03-13T02:11:06;98964.84;;;5.64;100.00
61573;BME280;47465;43.094;12.434;2023-03-13T02:13:34;98974.53;;;5.58;100.00
61573;BME280;47465;43.094;12.434;2023-03-13T02:16:00;98978.03;;;5.58;100.00
61573;BME280;47465;43.094;12.434;2023-03-13T02:18:28;98986.84;;;5.55;100.00
61573;BME280;47465;43.094;12.434;2023-03-13T02:21:01;98989.47;;;5.57;100.00
61573;BME280;47465;43.094;12.434;2023-03-13T02:23:34;98981.56;;;5.52;100.00
61573;BME280;47465;43.094;12.434;2023-03-13T02:26:05;99000.03;;;5.54;100.00
61573;BME280;47465;43.094;12.434;2023-03-13T02:28:32;98995.63;;;5.48;100.00
61573;BME280;47465;43.094;12.434;2023-03-13T02:30:59;99009.69;;;5.50;100.00
61573;BME280;47465;43.094;12.434;2023-03-13T02:33:28;98984.28;;;5.34;100.00
61573;BME280;47465;43.094;12.434;2023-03-13T02:35:55;99012.34;;;5.46;100.00
61573;BME280;47465;43.094;12.434;2023-03-13T02:38:23;98991.28;;;5.40;100.00
61573;BME280;47465;43.094;12.434;2023-03-13T02:40:52;99002.69;;;5.42;100.00
61573;BME280;47465;43.094;12.434;2023-03-13T02:43:23;98972.84;;;5.32;100.00
61573;BME280;47465;43.094;12.434;2023-03-13T02:46:02;99002.66;;;5.52;100.00
61573;BME280;47465;43.094;12.434;2023-03-13T02:48:31;98991.25;;;5.52;100.00
61573;BME280;47465;43.094;12.434;2023-03-13T02:50:58;98973.66;;;5.46;100.00
61573;BME280;47465;43.094;12.434;2023-03-13T02:53:24;99000.00;;;5.59;100.00
61573;BME280;47465;43.094;12.434;2023-03-13T02:55:50;98989.50;;;5.43;100.00
61573;BME280;47465;43.094;12.434;2023-03-13T02:58:16;99004.44;;;5.52;100.00
61573;BME280;47465;43.094;12.434;2023-03-13T03:00:43;99005.31;;;5.54;100.00
61573;BME280;47465;43.094;12.434;2023-03-13T03:03:09;99001.78;;;5.55;100.00
61573;BME280;47465;43.094;12.434;2023-03-13T03:05:35;98985.13;;;5.42;100.00
61573;BME280;47465;43.094;12.434;2023-03-13T03:08:01;98983.34;;;5.40;100.00
61573;BME280;47465;43.094;12.434;2023-03-13T03:10:27;98982.50;;;5.34;100.00
61573;BME280;47465;43.094;12.434;2023-03-13T03:12:53;99005.34;;;5.43;100.00
61573;BME280;47465;43.094;12.434;2023-03-13T03:15:19;98998.34;;;5.36;100.00
61573;BME280;47465;43.094;12.434;2023-03-13T03:17:46;99017.63;;;5.44;100.00
61573;BME280;47465;43.094;12.434;2023-03-13T03:20:12;98989.56;;;5.22;100.00
61573;BME280;47465;43.094;12.434;2023-03-13T03:22:38;98993.09;;;5.25;100.00
61573;BME280;47465;43.094;12.434;2023-03-13T03:25:06;99001.84;;;5.32;100.00
61573;BME280;47465;43.094;12.434;2023-03-13T03:27:33;99036.13;;;5.43;100.00
61573;BME280;47465;43.094;12.434;2023-03-13T03:29:59;99029.97;;;5.36;100.00
61573;BME280;47465;43.094;12.434;2023-03-13T03:32:24;99011.50;;;5.27;100.00
61573;BME280;47465;43.094;12.434;2023-03-13T03:34:52;99008.03;;;5.25;100.00
61573;BME280;47465;43.094;12.434;2023-03-13T03:37:17;99020.31;;;5.27;100.00
61573;BME280;47465;43.094;12.434;2023-03-13T03:39:43;99022.06;;;5.36;100.00
61573;BME280;47465;43.094;12.434;2023-03-13T03:42:09;99035.25;;;5.42;100.00
61573;BME280;47465;43.094;12.434;2023-03-13T03:44:35;99022.06;;;5.28;100.00
61573;BME280;47465;43.094;12.434;2023-03-13T03:47:01;99040.50;;;5.39;100.00
61573;BME280;47465;43.094;12.434;2023-03-13T03:49:26;99030.00;;;5.31;100.00
61573;BME280;47465;43.094;12.434;2023-03-13T03:51:54;99025.59;;;5.27;100.00
61573;BME280;47465;43.094;12.434;2023-03-13T03:54:20;99043.19;;;5.31;100.00
61573;BME280;47465;43.094;12.434;2023-03-13T03:56:45;99056.34;;;5.30;100.00
61573;BME280;47465;43.094;12.434;2023-03-13T03:59:11;99056.34;;;5.30;100.00
61573;BME280;47465;43.094;12.434;2023-03-13T04:01:37;99058.09;;;5.35;100.00
61573;BME280;47465;43.094;12.434;2023-03-13T04:04:03;99030.88;;;5.17;100.00
61573;BME280;47465;43.094;12.434;2023-03-13T04:06:29;99055.47;;;5.26;100.00
61573;BME280;47465;43.094;12.434;2023-03-13T04:08:56;99055.47;;;5.15;100.00
61573;BME280;47465;43.094;12.434;2023-03-13T04:11:22;99063.41;;;5.19;100.00
61573;BME280;47465;43.094;12.434;2023-03-13T04:13:48;99065.16;;;5.15;100.00
61573;BME280;47465;43.094;12.434;2023-03-13T04:16:14;99037.03;;;4.94;100.00
61573;BME280;47465;43.094;12.434;2023-03-13T04:18:40;99042.31;;;4.92;100.00
61573;BME280;47465;43.094;12.434;2023-03-13T04:21:05;99066.03;;;5.03;100.00
61573;BME280;47465;43.094;12.434;2023-03-13T04:23:32;99063.41;;;5.06;100.00
61573;BME280;47465;43.094;12.434;2023-03-13T04:25:59;99059.03;;;5.05;100.00
61573;BME280;47465;43.094;12.434;2023-03-13T04:28:25;99054.59;;;4.98;100.00
61573;BME280;47465;43.094;12.434;2023-03-13T04:30:51;99057.25;;;5.00;100.00
61573;BME280;47465;43.094;12.434;2023-03-13T04:33:21;99063.38;;;5.09;100.00
61573;BME280;47465;43.094;12.434;2023-03-13T04:35:47;99030.00;;;4.91;100.00
61573;BME280;47465;43.094;12.434;2023-03-13T04:38:13;99045.81;;;4.90;100.00
61573;BME280;47465;43.094;12.434;2023-03-13T04:40:39;99051.09;;;4.93;100.00
61573;BME280;47465;43.094;12.434;2023-03-13T04:43:06;99032.63;;;4.85;100.00
61573;BME280;47465;43.094;12.434;2023-03-13T04:45:32;99037.91;;;4.85;100.00
61573;BME280;47465;43.094;12.434;2023-03-13T04:47:58;99038.81;;;4.84;100.00
61573;BME280;47465;43.094;12.434;2023-03-13T04:50:24;99052.88;;;4.97;100.00
61573;BME280;47465;43.094;12.434;2023-03-13T04:52:49;99036.19;;;4.86;100.00
61573;BME280;47465;43.094;12.434;2023-03-13T04:55:15;99035.31;;;4.84;100.00
61573;BME280;47465;43.094;12.434;2023-03-13T04:57:42;99040.56;;;4.84;100.00
61573;BME280;47465;43.094;12.434;2023-03-13T05:00:10;99028.25;;;4.72;100.00
61573;BME280;47465;43.094;12.434;2023-03-13T05:02:36;99022.09;;;4.70;100.00
61573;BME280;47465;43.094;12.434;2023-03-13T05:05:02;99045.84;;;4.93;100.00
61573;BME280;47465;43.094;12.434;2023-03-13T05:07:28;99032.66;;;4.87;100.00
61573;BME280;47465;43.094;12.434;2023-03-13T05:09:54;99048.47;;;4.93;100.00
61573;BME280;47465;43.094;12.434;2023-03-13T05:12:20;99057.25;;;4.98;100.00
61573;BME280;47465;43.094;12.434;2023-03-13T05:14:46;99051.09;;;5.01;100.00
61573;BME280;47465;43.094;12.434;2023-03-13T05:17:13;99033.53;;;4.90;100.00
61573;BME280;47465;43.094;12.434;2023-03-13T05:19:39;99052.84;;;5.06;100.00
61573;BME280;47465;43.094;12.434;2023-03-13T05:22:05;99047.56;;;5.09;100.00
61573;BME280;47465;43.094;12.434;2023-03-13T05:24:31;99065.13;;;5.18;100.00
61573;BME280;47465;43.094;12.434;2023-03-13T05:26:56;99041.44;;;5.06;100.00
61573;BME280;47465;43.094;12.434;2023-03-13T05:29:22;99037.91;;;4.98;100.00
61573;BME280;47465;43.094;12.434;2023-03-13T05:31:48;99062.53;;;5.01;100.00
61573;BME280;47465;43.094;12.434;2023-03-13T05:34:15;99046.69;;;4.92;100.00
61573;BME280;47465;43.094;12.434;2023-03-13T05:36:41;99048.44;;;4.90;100.00
61573;BME280;47465;43.094;12.434;2023-03-13T05:39:07;99062.53;;;4.97;100.00
61573;BME280;47465;43.094;12.434;2023-03-13T05:41:33;99046.69;;;4.83;100.00
61573;BME280;47465;43.094;12.434;2023-03-13T05:43:59;99059.88;;;4.95;100.00
61573;BME280;47465;43.094;12.434;2023-03-13T05:46:25;99046.72;;;4.84;100.00
61573;BME280;47465;43.094;12.434;2023-03-13T05:48:51;99080.09;;;5.05;100.00
61573;BME280;47465;43.094;12.434;2023-03-13T05:51:19;99058.13;;;4.96;100.00
61573;BME280;47465;43.094;12.434;2023-03-13T05:53:45;99074.81;;;5.07;100.00
61573;BME280;47465;43.094;12.434;2023-03-13T05:56:10;99052.84;;;5.00;100.00
61573;BME280;47465;43.094;12.434;2023-03-13T05:58:36;99078.31;;;5.24;100.00
61573;BME280;47465;43.094;12.434;2023-03-13T06:01:06;99066.03;;;5.28;100.00
61573;BME280;47465;43.094;12.434;2023-03-13T06:03:32;99061.63;;;5.27;100.00
61573;BME280;47465;43.094;12.434;2023-03-13T06:05:58;99081.84;;;5.40;100.00
61573;BME280;47465;43.094;12.434;2023-03-13T06:08:25;99078.28;;;5.60;100.00
61573;BME280;47465;43.094;12.434;2023-03-13T06:10:52;99070.38;;;5.50;100.00
61573;BME280;47465;43.094;12.434;2023-03-13T06:13:18;99086.13;;;5.81;100.00
61573;BME280;47465;43.094;12.434;2023-03-13T06:15:50;99091.41;;;5.90;100.00
61573;BME280;47465;43.094;12.434;2023-03-13T06:18:16;99087.00;;;5.88;100.00
61573;BME280;47465;43.094;12.434;2023-03-13T06:20:41;99092.28;;;5.97;100.00
61573;BME280;47465;43.094;12.434;2023-03-13T06:23:07;99086.97;;;6.05;100.00
61573;BME280;47465;43.094;12.434;2023-03-13T06:25:35;99084.31;;;6.14;100.00
61573;BME280;47465;43.094;12.434;2023-03-13T06:28:00;99059.72;;;6.01;100.00
61573;BME280;47465;43.094;12.434;2023-03-13T06:30:26;99085.16;;;6.17;100.00
61573;BME280;47465;43.094;12.434;2023-03-13T06:32:52;99050.88;;;6.07;100.00
61573;BME280;47465;43.094;12.434;2023-03-13T06:35:18;99084.22;;;6.26;100.00
61573;BME280;47465;43.094;12.434;2023-03-13T06:37:44;99064.88;;;6.27;100.00
61573;BME280;47465;43.094;12.434;2023-03-13T06:40:11;99071.91;;;6.28;100.00
61573;BME280;47465;43.094;12.434;2023-03-13T06:42:39;99068.41;;;6.29;100.00
61573;BME280;47465;43.094;12.434;2023-03-13T06:45:05;99082.34;;;6.50;100.00
61573;BME280;47465;43.094;12.434;2023-03-13T06:47:31;99056.00;;;6.41;100.00
61573;BME280;47465;43.094;12.434;2023-03-13T06:49:57;99091.94;;;6.68;100.00
61573;BME280;47465;43.094;12.434;2023-03-13T06:52:24;99083.97;;;6.74;100.00
61573;BME280;47465;43.094;12.434;2023-03-13T06:54:50;99074.25;;;6.77;100.00
61573;BME280;47465;43.094;12.434;2023-03-13T06:57:16;99090.91;;;6.89;100.00
61573;BME280;47465;43.094;12.434;2023-03-13T06:59:43;99113.66;;;7.14;100.00
61573;BME280;47465;43.094;12.434;2023-03-13T07:02:10;99099.50;;;7.20;100.00
61573;BME280;47465;43.094;12.434;2023-03-13T07:04:36;99115.22;;;7.40;100.00
61573;BME280;47465;43.094;12.434;2023-03-13T07:07:02;99103.72;;;7.41;100.00
61573;BME280;47465;43.094;12.434;2023-03-13T07:09:28;99109.78;;;7.57;100.00
61573;BME280;47465;43.094;12.434;2023-03-13T07:11:54;99128.00;;;7.88;100.00
61573;BME280;47465;43.094;12.434;2023-03-13T07:14:22;99116.44;;;7.95;100.00
61573;BME280;47465;43.094;12.434;2023-03-13T07:16:49;99109.22;;;8.08;100.00
61573;BME280;47465;43.094;12.434;2023-03-13T07:19:15;99130.13;;;8.32;100.00
61573;BME280;47465;43.094;12.434;2023-03-13T07:21:41;99101.78;;;8.40;100.00
61573;BME280;47465;43.094;12.434;2023-03-13T07:24:08;99104.22;;;8.56;100.00
61573;BME280;47465;43.094;12.434;2023-03-13T07:26:34;99124.97;;;8.90;99.66
61573;BME280;47465;43.094;12.434;2023-03-13T07:29:00;99118.53;;;9.06;99.13
61573;BME280;47465;43.094;12.434;2023-03-13T07:31:27;99115.53;;;9.29;93.88
61573;BME280;47465;43.094;12.434;2023-03-13T07:33:56;99126.66;;;9.51;92.38
61573;BME280;47465;43.094;12.434;2023-03-13T07:36:22;99125.53;;;9.64;92.04
61573;BME280;47465;43.094;12.434;2023-03-13T07:38:48;99112.44;;;9.54;92.87
61573;BME280;47465;43.094;12.434;2023-03-13T07:41:14;99125.25;;;9.81;95.53
61573;BME280;47465;43.094;12.434;2023-03-13T07:43:40;99101.22;;;9.87;92.76
61573;BME280;47465;43.094;12.434;2023-03-13T07:46:09;99107.00;;;10.08;92.45
61573;BME280;47465;43.094;12.434;2023-03-13T07:48:37;99118.06;;;10.33;90.99
61573;BME280;47465;43.094;12.434;2023-03-13T07:51:06;99128.91;;;10.66;86.53
61573;BME280;47465;43.094;12.434;2023-03-13T07:53:33;99112.72;;;10.75;85.41
61573;BME280;47465;43.094;12.434;2023-03-13T07:56:00;99105.56;;;10.79;82.18
61573;BME280;47465;43.094;12.434;2023-03-13T07:58:29;99121.06;;;11.00;82.05
61573;BME280;47465;43.094;12.434;2023-03-13T08:00:56;99120.19;;;11.00;84.27
61573;BME280;47465;43.094;12.434;2023-03-13T08:03:22;99102.41;;;11.02;84.52
61573;BME280;47465;43.094;12.434;2023-03-13T08:05:56;99107.28;;;11.19;82.66
61573;BME280;47465;43.094;12.434;2023-03-13T08:08:24;99115.25;;;11.20;83.38
61573;BME280;47465;43.094;12.434;2023-03-13T08:10:50;99106.66;;;11.45;84.24
61573;BME280;47465;43.094;12.434;2023-03-13T08:13:16;99110.94;;;11.52;82.84
61573;BME280;47465;43.094;12.434;2023-03-13T08:15:41;99112.94;;;11.77;81.59
61573;BME280;47465;43.094;12.434;2023-03-13T08:18:07;99122.09;;;12.01;80.86
61573;BME280;47465;43.094;12.434;2023-03-13T08:20:33;99119.31;;;12.05;78.81
61573;BME280;47465;43.094;12.434;2023-03-13T08:22:59;99111.94;;;12.15;79.04
61573;BME280;47465;43.094;12.434;2023-03-13T08:25:26;99085.03;;;12.23;77.36
61573;BME280;47465;43.094;12.434;2023-03-13T08:27:52;99113.31;;;12.60;74.70
61573;BME280;47465;43.094;12.434;2023-03-13T08:30:19;99093.47;;;12.68;73.12
61573;BME280;47465;43.094;12.434;2023-03-13T08:32:45;99102.75;;;12.57;74.78
61573;BME280;47465;43.094;12.434;2023-03-13T08:35:11;99106.75;;;12.71;74.26
61573;BME280;47465;43.094;12.434;2023-03-13T08:37:37;99097.59;;;12.80;73.63
61573;BME280;47465;43.094;12.434;2023-03-13T08:40:04;99121.78;;;13.04;71.64
61573;BME280;47465;43.094;12.434;2023-03-13T08:42:37;99103.09;;;13.04;69.56
61573;BME280;47465;43.094;12.434;2023-03-13T08:45:04;99114.78;;;13.28;69.54
61573;BME280;47465;43.094;12.434;2023-03-13T08:47:30;99110.09;;;13.36;70.65
61573;BME280;47465;43.094;12.434;2023-03-13T08:49:55;99101.72;;;13.47;68.24
61573;BME280;47465;43.094;12.434;2023-03-13T08:52:22;99125.97;;;13.67;66.99
61573;BME280;47465;43.094;12.434;2023-03-13T08:54:48;99120.25;;;13.78;66.90
61573;BME280;47465;43.094;12.434;2023-03-13T08:57:14;99115.59;;;13.83;66.92
61573;BME280;47465;43.094;12.434;2023-03-13T08:59:42;99114.25;;;13.96;65.60
61573;BME280;47465;43.094;12.434;2023-03-13T09:02:08;99107.16;;;13.95;63.50
61573;BME280;47465;43.094;12.434;2023-03-13T09:04:34;99114.59;;;14.12;63.63
61573;BME280;47465;43.094;12.434;2023-03-13T09:07:00;99106.59;;;14.11;61.72
61573;BME280;47465;43.094;12.434;2023-03-13T09:09:26;99113.34;;;14.23;63.47
61573;BME280;47465;43.094;12.434;2023-03-13T09:11:52;99087.63;;;14.18;63.15
61573;BME280;47465;43.094;12.434;2023-03-13T09:14:18;99090.03;;;14.25;62.63
61573;BME280;47465;43.094;12.434;2023-03-13T09:16:45;99100.41;;;14.10;63.69
61573;BME280;47465;43.094;12.434;2023-03-13T09:19:12;99080.03;;;13.81;64.21
61573;BME280;47465;43.094;12.434;2023-03-13T09:21:39;99104.44;;;13.97;65.42
61573;BME280;47465;43.094;12.434;2023-03-13T09:24:05;99098.53;;;14.12;64.58
61573;BME280;47465;43.094;12.434;2023-03-13T09:26:31;99077.88;;;14.16;64.04
61573;BME280;47465;43.094;12.434;2023-03-13T09:28:57;99083.84;;;14.48;63.10
61573;BME280;47465;43.094;12.434;2023-03-13T09:31:24;99087.66;;;14.66;63.21
61573;BME280;47465;43.094;12.434;2023-03-13T09:33:52;99082.88;;;14.74;63.11
61573;BME280;47465;43.094;12.434;2023-03-13T09:36:18;99073.94;;;14.75;63.56
61573;BME280;47465;43.094;12.434;2023-03-13T09:38:45;99085.31;;;14.80;62.86
61573;BME280;47465;43.094;12.434;2023-03-13T09:41:22;99068.03;;;14.89;64.23
61573;BME280;47465;43.094;12.434;2023-03-13T09:43:50;99072.06;;;14.99;64.22
61573;BME280;47465;43.094;12.434;2023-03-13T09:46:23;99083.09;;;14.68;65.51
61573;BME280;47465;43.094;12.434;2023-03-13T09:48:53;99090.44;;;14.86;65.85
61573;BME280;47465;43.094;12.434;2023-03-13T09:51:25;99090.94;;;14.96;65.31
61573;BME280;47465;43.094;12.434;2023-03-13T09:53:56;99074.25;;;14.89;65.93
61573;BME280;47465;43.094;12.434;2023-03-13T09:56:27;99082.16;;;15.14;66.38
61573;BME280;47465;43.094;12.434;2023-03-13T09:58:58;99069.41;;;15.21;65.34
61573;BME280;47465;43.094;12.434;2023-03-13T10:01:28;99082.72;;;15.45;65.55
61573;BME280;47465;43.094;12.434;2023-03-13T10:04:04;99091.72;;;15.64;64.46
61573;BME280;47465;43.094;12.434;2023-03-13T10:06:34;99097.88;;;15.66;64.40
61573;BME280;47465;43.094;12.434;2023-03-13T10:09:15;99092.38;;;15.69;65.13
61573;BME280;47465;43.094;12.434;2023-03-13T10:11:45;99080.44;;;15.56;65.62
61573;BME280;47465;43.094;12.434;2023-03-13T10:14:15;99076.13;;;15.74;65.02
61573;BME280;47465;43.094;12.434;2023-03-13T10:16:50;99057.53;;;15.69;65.52
61573;BME280;47465;43.094;12.434;2023-03-13T10:19:25;99076.88;;;15.98;64.57
61573;BME280;47465;43.094;12.434;2023-03-13T10:21:52;99067.72;;;15.83;64.38
61573;BME280;47465;43.094;12.434;2023-03-13T10:24:29;99077.28;;;16.09;65.34
61573;BME280;47465;43.094;12.434;2023-03-13T10:26:56;99072.31;;;16.20;64.24
61573;BME280;47465;43.094;12.434;2023-03-13T10:29:24;99057.88;;;16.02;64.79
61573;BME280;47465;43.094;12.434;2023-03-13T10:31:55;99067.84;;;16.00;64.95
61573;BME280;47465;43.094;12.434;2023-03-13T10:34:24;99046.59;;;16.15;65.09
61573;BME280;47465;43.094;12.434;2023-03-13T10:36:56;99044.41;;;16.04;64.75
61573;BME280;47465;43.094;12.434;2023-03-13T10:39:24;99029.59;;;15.95;65.40
61573;BME280;47465;43.094;12.434;2023-03-13T10:41:56;99040.91;;;16.22;65.29
61573;BME280;47465;43.094;12.434;2023-03-13T10:44:28;99038.22;;;16.41;65.74
61573;BME280;47465;43.094;12.434;2023-03-13T10:46:58;99031.34;;;16.55;64.38
61573;BME280;47465;43.094;12.434;2023-03-13T10:49:28;99023.72;;;16.64;65.07
61573;BME280;47465;43.094;12.434;2023-03-13T10:51:57;99041.88;;;16.97;63.37
61573;BME280;47465;43.094;12.434;2023-03-13T10:54:23;99045.84;;;17.08;62.10
61573;BME280;47465;43.094;12.434;2023-03-13T10:56:49;99042.00;;;17.13;60.97
61573;BME280;47465;43.094;12.434;2023-03-13T10:59:19;99009.97;;;17.09;60.89
61573;BME280;47465;43.094;12.434;2023-03-13T11:01:47;99042.16;;;17.28;60.69
61573;BME280;47465;43.094;12.434;2023-03-13T11:04:20;99010.47;;;17.34;60.65
61573;BME280;47465;43.094;12.434;2023-03-13T11:06:51;98997.81;;;17.54;59.29
61573;BME280;47465;43.094;12.434;2023-03-13T11:09:27;99023.53;;;17.77;59.87
61573;BME280;47465;43.094;12.434;2023-03-13T11:12:02;98984.03;;;17.77;59.15
61573;BME280;47465;43.094;12.434;2023-03-13T11:14:29;98996.44;;;17.80;58.71
61573;BME280;47465;43.094;12.434;2023-03-13T11:17:04;98996.66;;;18.10;58.21
61573;BME280;47465;43.094;12.434;2023-03-13T11:19:57;98983.16;;;18.27;56.04
61573;BME280;47465;43.094;12.434;2023-03-13T11:22:38;98987.16;;;18.36;55.43
61573;BME280;47465;43.094;12.434;2023-03-13T11:25:25;98994.44;;;18.34;55.46
61573;BME280;47465;43.094;12.434;2023-03-13T11:28:02;98992.81;;;18.32;55.60
61573;BME280;47465;43.094;12.434;2023-03-13T11:30:44;98976.19;;;18.08;55.73
61573;BME280;47465;43.094;12.434;2023-03-13T11:33:24;98987.53;;;18.13;55.49
61573;BME280;47465;43.094;12.434;2023-03-13T11:35:59;98965.13;;;17.96;57.18
61573;BME280;47465;43.094;12.434;2023-03-13T11:38:32;98966.44;;;18.05;55.15
61573;BME280;47465;43.094;12.434;2023-03-13T11:41:08;98959.78;;;18.12;53.90
61573;BME280;47465;43.094;12.434;2023-03-13T11:43:54;98963.09;;;18.17;53.78
61573;BME280;47465;43.094;12.434;2023-03-13T11:46:42;98974.63;;;18.19;53.68
61573;BME280;47465;43.094;12.434;2023-03-13T11:49:38;98955.09;;;17.82;54.06
61573;BME280;47465;43.094;12.434;2023-03-13T11:52:26;98962.47;;;18.12;54.45
61573;BME280;47465;43.094;12.434;2023-03-13T11:55:17;98952.06;;;18.22;53.66
61573;BME280;47465;43.094;12.434;2023-03-13T11:57:53;98963.63;;;18.40;53.96
61573;BME280;47465;43.094;12.434;2023-03-13T12:00:27;98941.84;;;18.29;53.60
61573;BME280;47465;43.094;12.434;2023-03-13T12:02:56;98935.13;;;18.36;53.28
61573;BME280;47465;43.094;12.434;2023-03-13T12:05:25;98945.97;;;18.34;53.65
61573;BME280;47465;43.094;12.434;2023-03-13T12:07:57;98928.97;;;18.34;54.03
61573;BME280;47465;43.094;12.434;2023-03-13T12:10:33;98920.91;;;18.34;53.81
61573;BME280;47465;43.094;12.434;2023-03-13T12:13:04;98921.16;;;18.45;54.70
61573;BME280;47465;43.094;12.434;2023-03-13T12:15:36;98924.63;;;18.63;53.89
61573;BME280;47465;43.094;12.434;2023-03-13T12:18:05;98908.66;;;18.44;52.94
61573;BME280;47465;43.094;12.434;2023-03-13T12:20:40;98917.41;;;18.32;53.65
61573;BME280;47465;43.094;12.434;2023-03-13T12:23:17;98897.63;;;18.33;53.52
61573;BME280;47465;43.094;12.434;2023-03-13T12:25:49;98911.34;;;18.44;53.34
61573;BME280;47465;43.094;12.434;2023-03-13T12:28:23;98916.88;;;18.41;53.20
61573;BME280;47465;43.094;12.434;2023-03-13T12:30:55;98891.47;;;18.31;53.85
61573;BME280;47465;43.094;12.434;2023-03-13T12:33:25;98912.09;;;18.62;53.60
61573;BME280;47465;43.094;12.434;2023-03-13T12:36:01;98889.47;;;18.50;54.59
61573;BME280;47465;43.094;12.434;2023-03-13T12:38:35;98878.06;;;18.45;54.46
61573;BME280;47465;43.094;12.434;2023-03-13T12:41:14;98865.53;;;18.60;55.24
61573;BME280;47465;43.094;12.434;2023-03-13T12:43:44;98871.16;;;18.71;51.50
61573;BME280;47465;43.094;12.434;2023-03-13T12:46:26;98866.16;;;18.81;49.87
61573;BME280;47465;43.094;12.434;2023-03-13T12:49:12;98882.19;;;18.98;51.21
61573;BME280;47465;43.094;12.434;2023-03-13T12:51:55;98882.09;;;19.00;47.60
61573;BME280;47465;43.094;12.434;2023-03-13T12:57:29;98861.75;;;18.94;48.15
61573;BME280;47465;43.094;12.434;2023-03-13T13:00:11;98870.84;;;19.07;49.74